sensor_id;sensor_type;location;lat;lon;timestamp;P1;durP1;ratioP1;P2;durP2;ratioP2
56319;SDS011;42226;42.382;23.748;2022-12-10T00:01:48;19.33;;;7.07;;
56319;SDS011;42226;42.382;23.748;2022-12-10T00:04:18;18.77;;;7.93;;
56319;SDS011;42226;42.382;23.748;2022-12-10T00:06:46;14.95;;;7.13;;
56319;SDS011;42226;42.382;23.748;2022-12-10T00:09:15;16.58;;;7.05;;
56319;SDS011;42226;42.382;23.748;2022-12-10T00:11:45;15.25;;;6.85;;
56319;SDS011;42226;42.382;23.748;2022-12-10T00:14:12;14.07;;;7.20;;
56319;SDS011;42226;42.382;23.748;2022-12-10T00:16:42;14.75;;;7.13;;
56319;SDS011;42226;42.382;23.748;2022-12-10T00:19:09;17.77;;;6.50;;
56319;SDS011;42226;42.382;23.748;2022-12-10T00:21:37;13.93;;;6.60;;
56319;SDS011;42226;42.382;23.748;2022-12-10T00:24:04;15.50;;;6.85;;
56319;SDS011;42226;42.382;23.748;2022-12-10T00:26:34;14.48;;;6.97;;
56319;SDS011;42226;42.382;23.748;2022-12-10T00:29:05;16.70;;;7.38;;
56319;SDS011;42226;42.382;23.748;2022-12-10T00:31:37;12.90;;;7.60;;
56319;SDS011;42226;42.382;23.748;2022-12-10T00:34:08;16.52;;;7.55;;
56319;SDS011;42226;42.382;23.748;2022-12-10T00:36:38;17.27;;;7.97;;
56319;SDS011;42226;42.382;23.748;2022-12-10T00:39:15;16.30;;;7.35;;
56319;SDS011;42226;42.382;23.748;2022-12-10T00:41:46;18.58;;;7.38;;
56319;SDS011;42226;42.382;23.748;2022-12-10T00:44:14;14.95;;;7.68;;
56319;SDS011;42226;42.382;23.748;2022-12-10T00:46:41;14.82;;;7.22;;
56319;SDS011;42226;42.382;23.748;2022-12-10T00:49:09;20.73;;;8.40;;
56319;SDS011;42226;42.382;23.748;2022-12-10T00:51:37;12.85;;;7.20;;
56319;SDS011;42226;42.382;23.748;2022-12-10T00:54:05;38.95;;;11.15;;
56319;SDS011;42226;42.382;23.748;2022-12-10T00:56:35;12.90;;;7.13;;
56319;SDS011;42226;42.382;23.748;2022-12-10T00:59:03;20.23;;;8.00;;
56319;SDS011;42226;42.382;23.748;2022-12-10T01:01:39;13.27;;;7.30;;
56319;SDS011;42226;42.382;23.748;2022-12-10T01:04:12;16.85;;;7.50;;
56319;SDS011;42226;42.382;23.748;2022-12-10T01:06:46;13.25;;;6.90;;
56319;SDS011;42226;42.382;23.748;2022-12-10T01:09:18;20.75;;;8.70;;
56319;SDS011;42226;42.382;23.748;2022-12-10T01:11:51;12.40;;;6.57;;
56319;SDS011;42226;42.382;23.748;2022-12-10T01:14:26;9.65;;;6.60;;
56319;SDS011;42226;42.382;23.748;2022-12-10T01:16:56;12.38;;;6.65;;
56319;SDS011;42226;42.382;23.748;2022-12-10T01:19:27;13.65;;;6.70;;
56319;SDS011;42226;42.382;23.748;2022-12-10T01:21:57;13.93;;;6.85;;
56319;SDS011;42226;42.382;23.748;2022-12-10T01:24:25;13.10;;;6.75;;
56319;SDS011;42226;42.382;23.748;2022-12-10T01:26:53;15.77;;;7.40;;
56319;SDS011;42226;42.382;23.748;2022-12-10T01:29:20;12.48;;;7.05;;
56319;SDS011;42226;42.382;23.748;2022-12-10T01:31:51;15.38;;;7.43;;
56319;SDS011;42226;42.382;23.748;2022-12-10T01:34:20;18.13;;;8.23;;
56319;SDS011;42226;42.382;23.748;2022-12-10T01:36:52;13.60;;;6.70;;
56319;SDS011;42226;42.382;23.748;2022-12-10T01:39:20;14.48;;;7.05;;
56319;SDS011;42226;42.382;23.748;2022-12-10T01:41:56;16.73;;;6.97;;
56319;SDS011;42226;42.382;23.748;2022-12-10T01:46:53;14.38;;;6.63;;
56319;SDS011;42226;42.382;23.748;2022-12-10T01:49:27;13.63;;;6.85;;
56319;SDS011;42226;42.382;23.748;2022-12-10T01:52:03;15.85;;;6.90;;
56319;SDS011;42226;42.382;23.748;2022-12-10T01:54:41;9.80;;;6.15;;
56319;SDS011;42226;42.382;23.748;2022-12-10T01:57:18;12.43;;;6.70;;
56319;SDS011;42226;42.382;23.748;2022-12-10T01:59:52;11.10;;;6.63;;
56319;SDS011;42226;42.382;23.748;2022-12-10T02:02:38;11.02;;;6.32;;
56319;SDS011;42226;42.382;23.748;2022-12-10T02:05:49;13.75;;;6.60;;
56319;SDS011;42226;42.382;23.748;2022-12-10T02:08:40;12.35;;;6.55;;
56319;SDS011;42226;42.382;23.748;2022-12-10T02:11:24;14.75;;;7.60;;
56319;SDS011;42226;42.382;23.748;2022-12-10T02:14:43;11.88;;;7.75;;
56319;SDS011;42226;42.382;23.748;2022-12-10T02:17:27;11.75;;;6.53;;
56319;SDS011;42226;42.382;23.748;2022-12-10T02:20:15;13.95;;;6.70;;
56319;SDS011;42226;42.382;23.748;2022-12-10T02:22:54;14.27;;;6.45;;
56319;SDS011;42226;42.382;23.748;2022-12-10T02:25:26;14.02;;;6.40;;
56319;SDS011;42226;42.382;23.748;2022-12-10T02:31:03;9.85;;;6.03;;
56319;SDS011;42226;42.382;23.748;2022-12-10T02:33:32;11.48;;;6.40;;
56319;SDS011;42226;42.382;23.748;2022-12-10T02:36:00;12.32;;;6.07;;
56319;SDS011;42226;42.382;23.748;2022-12-10T02:38:30;15.25;;;6.28;;
56319;SDS011;42226;42.382;23.748;2022-12-10T02:41:04;13.00;;;6.38;;
56319;SDS011;42226;42.382;23.748;2022-12-10T02:43:45;16.97;;;7.30;;
56319;SDS011;42226;42.382;23.748;2022-12-10T02:46:17;18.30;;;7.38;;
56319;SDS011;42226;42.382;23.748;2022-12-10T02:48:46;16.48;;;7.90;;
56319;SDS011;42226;42.382;23.748;2022-12-10T02:51:16;15.20;;;7.63;;
56319;SDS011;42226;42.382;23.748;2022-12-10T02:53:44;15.02;;;6.55;;
56319;SDS011;42226;42.382;23.748;2022-12-10T02:56:30;12.73;;;7.00;;
56319;SDS011;42226;42.382;23.748;2022-12-10T03:01:46;13.93;;;7.60;;
56319;SDS011;42226;42.382;23.748;2022-12-10T03:07:34;13.55;;;7.45;;
56319;SDS011;42226;42.382;23.748;2022-12-10T03:10:23;14.15;;;7.30;;
56319;SDS011;42226;42.382;23.748;2022-12-10T03:13:00;13.38;;;6.75;;
56319;SDS011;42226;42.382;23.748;2022-12-10T03:15:34;11.15;;;6.53;;
56319;SDS011;42226;42.382;23.748;2022-12-10T03:18:04;12.68;;;6.80;;
56319;SDS011;42226;42.382;23.748;2022-12-10T03:20:39;16.83;;;7.40;;
56319;SDS011;42226;42.382;23.748;2022-12-10T03:23:12;14.18;;;7.07;;
56319;SDS011;42226;42.382;23.748;2022-12-10T03:25:43;14.02;;;7.85;;
56319;SDS011;42226;42.382;23.748;2022-12-10T03:28:14;14.00;;;7.18;;
56319;SDS011;42226;42.382;23.748;2022-12-10T03:30:46;12.30;;;7.18;;
56319;SDS011;42226;42.382;23.748;2022-12-10T03:33:16;12.02;;;6.30;;
56319;SDS011;42226;42.382;23.748;2022-12-10T03:35:44;16.00;;;6.68;;
56319;SDS011;42226;42.382;23.748;2022-12-10T03:38:13;11.38;;;6.60;;
56319;SDS011;42226;42.382;23.748;2022-12-10T03:40:40;11.50;;;6.30;;
56319;SDS011;42226;42.382;23.748;2022-12-10T03:43:08;9.95;;;5.80;;
56319;SDS011;42226;42.382;23.748;2022-12-10T03:45:37;10.48;;;6.70;;
56319;SDS011;42226;42.382;23.748;2022-12-10T03:48:05;14.90;;;6.45;;
56319;SDS011;42226;42.382;23.748;2022-12-10T03:50:32;15.70;;;6.60;;
56319;SDS011;42226;42.382;23.748;2022-12-10T03:53:00;13.75;;;6.45;;
56319;SDS011;42226;42.382;23.748;2022-12-10T03:55:27;13.60;;;6.70;;
56319;SDS011;42226;42.382;23.748;2022-12-10T03:57:55;12.35;;;6.30;;
56319;SDS011;42226;42.382;23.748;2022-12-10T04:00:22;12.65;;;6.25;;
56319;SDS011;42226;42.382;23.748;2022-12-10T04:02:49;9.00;;;6.10;;
56319;SDS011;42226;42.382;23.748;2022-12-10T04:05:17;10.10;;;5.90;;
56319;SDS011;42226;42.382;23.748;2022-12-10T04:07:44;10.90;;;6.00;;
56319;SDS011;42226;42.382;23.748;2022-12-10T04:10:11;13.00;;;6.85;;
56319;SDS011;42226;42.382;23.748;2022-12-10T04:12:38;12.13;;;6.15;;
56319;SDS011;42226;42.382;23.748;2022-12-10T04:15:05;10.95;;;6.15;;
56319;SDS011;42226;42.382;23.748;2022-12-10T04:17:51;11.60;;;5.95;;
56319;SDS011;42226;42.382;23.748;2022-12-10T04:20:19;10.00;;;6.70;;
56319;SDS011;42226;42.382;23.748;2022-12-10T04:23:05;12.02;;;6.35;;
56319;SDS011;42226;42.382;23.748;2022-12-10T04:25:51;9.52;;;6.05;;
56319;SDS011;42226;42.382;23.748;2022-12-10T04:28:37;12.02;;;6.60;;
56319;SDS011;42226;42.382;23.748;2022-12-10T04:31:05;13.48;;;6.63;;
56319;SDS011;42226;42.382;23.748;2022-12-10T04:33:32;10.07;;;6.10;;
56319;SDS011;42226;42.382;23.748;2022-12-10T04:36:00;12.93;;;7.15;;
56319;SDS011;42226;42.382;23.748;2022-12-10T04:38:27;11.55;;;6.18;;
56319;SDS011;42226;42.382;23.748;2022-12-10T04:40:54;9.13;;;6.20;;
56319;SDS011;42226;42.382;23.748;2022-12-10T04:43:21;10.57;;;6.22;;
56319;SDS011;42226;42.382;23.748;2022-12-10T04:45:48;13.75;;;7.38;;
56319;SDS011;42226;42.382;23.748;2022-12-10T04:48:15;10.68;;;6.47;;
56319;SDS011;42226;42.382;23.748;2022-12-10T04:50:42;10.43;;;6.15;;
56319;SDS011;42226;42.382;23.748;2022-12-10T04:53:09;11.23;;;6.45;;
56319;SDS011;42226;42.382;23.748;2022-12-10T04:55:36;16.85;;;8.43;;
56319;SDS011;42226;42.382;23.748;2022-12-10T04:58:04;10.00;;;6.97;;
56319;SDS011;42226;42.382;23.748;2022-12-10T05:00:31;13.30;;;6.90;;
56319;SDS011;42226;42.382;23.748;2022-12-10T05:02:57;12.23;;;6.93;;
56319;SDS011;42226;42.382;23.748;2022-12-10T05:05:25;11.18;;;6.82;;
56319;SDS011;42226;42.382;23.748;2022-12-10T05:07:52;9.68;;;6.45;;
56319;SDS011;42226;42.382;23.748;2022-12-10T05:10:20;12.95;;;7.20;;
56319;SDS011;42226;42.382;23.748;2022-12-10T05:12:46;12.30;;;6.38;;
56319;SDS011;42226;42.382;23.748;2022-12-10T05:15:13;15.50;;;7.45;;
56319;SDS011;42226;42.382;23.748;2022-12-10T05:17:41;11.10;;;6.55;;
56319;SDS011;42226;42.382;23.748;2022-12-10T05:20:08;17.08;;;8.32;;
56319;SDS011;42226;42.382;23.748;2022-12-10T05:22:36;13.93;;;7.65;;
56319;SDS011;42226;42.382;23.748;2022-12-10T05:25:22;15.68;;;8.13;;
56319;SDS011;42226;42.382;23.748;2022-12-10T05:27:49;13.52;;;7.32;;
56319;SDS011;42226;42.382;23.748;2022-12-10T05:30:16;9.95;;;6.38;;
56319;SDS011;42226;42.382;23.748;2022-12-10T05:32:43;10.20;;;6.40;;
56319;SDS011;42226;42.382;23.748;2022-12-10T05:35:11;9.70;;;6.18;;
56319;SDS011;42226;42.382;23.748;2022-12-10T05:37:38;9.60;;;5.65;;
56319;SDS011;42226;42.382;23.748;2022-12-10T05:40:05;6.78;;;5.80;;
56319;SDS011;42226;42.382;23.748;2022-12-10T05:42:34;11.73;;;5.75;;
56319;SDS011;42226;42.382;23.748;2022-12-10T05:45:00;9.45;;;6.50;;
56319;SDS011;42226;42.382;23.748;2022-12-10T05:47:27;10.80;;;6.32;;
56319;SDS011;42226;42.382;23.748;2022-12-10T05:49:54;10.60;;;6.07;;
56319;SDS011;42226;42.382;23.748;2022-12-10T05:52:21;9.45;;;5.88;;
56319;SDS011;42226;42.382;23.748;2022-12-10T05:54:49;8.95;;;6.38;;
56319;SDS011;42226;42.382;23.748;2022-12-10T05:57:16;9.48;;;5.88;;
56319;SDS011;42226;42.382;23.748;2022-12-10T05:59:43;11.52;;;6.10;;
56319;SDS011;42226;42.382;23.748;2022-12-10T06:02:11;14.35;;;7.18;;
56319;SDS011;42226;42.382;23.748;2022-12-10T06:04:38;15.82;;;7.63;;
56319;SDS011;42226;42.382;23.748;2022-12-10T06:07:05;11.60;;;6.18;;
56319;SDS011;42226;42.382;23.748;2022-12-10T06:09:33;11.70;;;6.60;;
56319;SDS011;42226;42.382;23.748;2022-12-10T06:11:59;10.55;;;6.03;;
56319;SDS011;42226;42.382;23.748;2022-12-10T06:14:26;14.10;;;6.90;;
56319;SDS011;42226;42.382;23.748;2022-12-10T06:16:52;12.20;;;6.78;;
56319;SDS011;42226;42.382;23.748;2022-12-10T06:19:20;13.18;;;5.95;;
56319;SDS011;42226;42.382;23.748;2022-12-10T06:21:47;10.32;;;6.75;;
56319;SDS011;42226;42.382;23.748;2022-12-10T06:24:15;11.45;;;7.30;;
56319;SDS011;42226;42.382;23.748;2022-12-10T06:26:42;9.27;;;5.82;;
56319;SDS011;42226;42.382;23.748;2022-12-10T06:29:09;9.75;;;5.45;;
56319;SDS011;42226;42.382;23.748;2022-12-10T06:31:36;7.65;;;5.60;;
56319;SDS011;42226;42.382;23.748;2022-12-10T06:34:02;9.70;;;6.35;;
56319;SDS011;42226;42.382;23.748;2022-12-10T06:36:30;9.80;;;5.95;;
56319;SDS011;42226;42.382;23.748;2022-12-10T06:38:57;11.57;;;6.18;;
56319;SDS011;42226;42.382;23.748;2022-12-10T06:41:25;10.95;;;6.03;;
56319;SDS011;42226;42.382;23.748;2022-12-10T06:43:52;8.30;;;5.93;;
56319;SDS011;42226;42.382;23.748;2022-12-10T06:46:20;10.75;;;6.90;;
56319;SDS011;42226;42.382;23.748;2022-12-10T06:48:47;11.93;;;8.05;;
56319;SDS011;42226;42.382;23.748;2022-12-10T06:51:14;13.93;;;8.23;;
56319;SDS011;42226;42.382;23.748;2022-12-10T06:53:43;12.30;;;6.75;;
56319;SDS011;42226;42.382;23.748;2022-12-10T06:56:17;12.30;;;6.55;;
56319;SDS011;42226;42.382;23.748;2022-12-10T06:58:46;10.70;;;6.25;;
56319;SDS011;42226;42.382;23.748;2022-12-10T07:01:16;12.70;;;6.78;;
56319;SDS011;42226;42.382;23.748;2022-12-10T07:03:48;8.88;;;6.28;;
56319;SDS011;42226;42.382;23.748;2022-12-10T07:06:18;11.60;;;6.30;;
56319;SDS011;42226;42.382;23.748;2022-12-10T07:08:47;25.88;;;15.80;;
56319;SDS011;42226;42.382;23.748;2022-12-10T07:11:15;31.70;;;23.52;;
56319;SDS011;42226;42.382;23.748;2022-12-10T07:13:45;9.38;;;7.55;;
56319;SDS011;42226;42.382;23.748;2022-12-10T07:16:13;8.60;;;6.53;;
56319;SDS011;42226;42.382;23.748;2022-12-10T07:18:43;10.27;;;5.93;;
56319;SDS011;42226;42.382;23.748;2022-12-10T07:21:30;10.88;;;7.82;;
56319;SDS011;42226;42.382;23.748;2022-12-10T07:24:01;18.95;;;9.63;;
56319;SDS011;42226;42.382;23.748;2022-12-10T07:26:36;14.85;;;9.57;;
56319;SDS011;42226;42.382;23.748;2022-12-10T07:29:06;14.02;;;9.18;;
56319;SDS011;42226;42.382;23.748;2022-12-10T07:31:36;17.75;;;11.55;;
56319;SDS011;42226;42.382;23.748;2022-12-10T07:34:03;11.38;;;7.72;;
56319;SDS011;42226;42.382;23.748;2022-12-10T07:36:30;8.82;;;6.60;;
56319;SDS011;42226;42.382;23.748;2022-12-10T07:38:58;9.00;;;6.93;;
56319;SDS011;42226;42.382;23.748;2022-12-10T07:41:25;10.93;;;7.45;;
56319;SDS011;42226;42.382;23.748;2022-12-10T07:43:52;9.75;;;6.55;;
56319;SDS011;42226;42.382;23.748;2022-12-10T07:46:23;9.00;;;5.97;;
56319;SDS011;42226;42.382;23.748;2022-12-10T07:48:54;8.77;;;5.85;;
56319;SDS011;42226;42.382;23.748;2022-12-10T07:51:21;11.13;;;6.25;;
56319;SDS011;42226;42.382;23.748;2022-12-10T07:53:52;7.88;;;6.22;;
56319;SDS011;42226;42.382;23.748;2022-12-10T07:56:19;9.20;;;6.63;;
56319;SDS011;42226;42.382;23.748;2022-12-10T07:58:48;8.88;;;6.40;;
56319;SDS011;42226;42.382;23.748;2022-12-10T08:01:18;9.30;;;6.38;;
56319;SDS011;42226;42.382;23.748;2022-12-10T08:03:50;10.50;;;6.43;;
56319;SDS011;42226;42.382;23.748;2022-12-10T08:06:19;7.75;;;6.20;;
56319;SDS011;42226;42.382;23.748;2022-12-10T08:08:48;8.60;;;6.00;;
56319;SDS011;42226;42.382;23.748;2022-12-10T08:11:16;10.50;;;6.70;;
56319;SDS011;42226;42.382;23.748;2022-12-10T08:13:45;9.38;;;7.15;;
56319;SDS011;42226;42.382;23.748;2022-12-10T08:16:14;7.45;;;5.53;;
56319;SDS011;42226;42.382;23.748;2022-12-10T08:18:48;8.85;;;6.03;;
56319;SDS011;42226;42.382;23.748;2022-12-10T08:21:16;9.55;;;5.90;;
56319;SDS011;42226;42.382;23.748;2022-12-10T08:23:47;11.30;;;6.10;;
56319;SDS011;42226;42.382;23.748;2022-12-10T08:26:15;7.00;;;5.53;;
56319;SDS011;42226;42.382;23.748;2022-12-10T08:28:45;10.40;;;5.70;;
56319;SDS011;42226;42.382;23.748;2022-12-10T08:31:14;8.35;;;5.70;;
56319;SDS011;42226;42.382;23.748;2022-12-10T08:33:43;10.82;;;5.90;;
56319;SDS011;42226;42.382;23.748;2022-12-10T08:36:11;9.32;;;5.75;;
56319;SDS011;42226;42.382;23.748;2022-12-10T08:38:42;9.65;;;5.65;;
56319;SDS011;42226;42.382;23.748;2022-12-10T08:43:46;7.75;;;5.97;;
56319;SDS011;42226;42.382;23.748;2022-12-10T08:46:16;7.10;;;5.88;;
56319;SDS011;42226;42.382;23.748;2022-12-10T08:48:43;8.98;;;5.30;;
56319;SDS011;42226;42.382;23.748;2022-12-10T08:51:10;9.65;;;5.53;;
56319;SDS011;42226;42.382;23.748;2022-12-10T08:53:41;8.70;;;5.30;;
56319;SDS011;42226;42.382;23.748;2022-12-10T08:56:09;8.90;;;5.70;;
56319;SDS011;42226;42.382;23.748;2022-12-10T08:58:37;11.10;;;5.50;;
56319;SDS011;42226;42.382;23.748;2022-12-10T09:01:06;11.35;;;5.63;;
56319;SDS011;42226;42.382;23.748;2022-12-10T09:03:38;9.77;;;6.47;;
56319;SDS011;42226;42.382;23.748;2022-12-10T09:06:07;9.00;;;5.72;;
56319;SDS011;42226;42.382;23.748;2022-12-10T09:08:38;8.25;;;5.40;;
56319;SDS011;42226;42.382;23.748;2022-12-10T09:11:07;9.85;;;5.68;;
56319;SDS011;42226;42.382;23.748;2022-12-10T09:13:42;7.35;;;5.03;;
56319;SDS011;42226;42.382;23.748;2022-12-10T09:16:10;9.82;;;5.47;;
56319;SDS011;42226;42.382;23.748;2022-12-10T09:18:38;8.05;;;4.93;;
56319;SDS011;42226;42.382;23.748;2022-12-10T09:21:06;7.70;;;5.20;;
56319;SDS011;42226;42.382;23.748;2022-12-10T09:23:36;8.90;;;5.10;;
56319;SDS011;42226;42.382;23.748;2022-12-10T09:26:10;8.05;;;4.97;;
56319;SDS011;42226;42.382;23.748;2022-12-10T09:28:41;5.90;;;4.47;;
56319;SDS011;42226;42.382;23.748;2022-12-10T09:31:09;8.88;;;5.22;;
56319;SDS011;42226;42.382;23.748;2022-12-10T09:33:37;6.97;;;5.00;;
56319;SDS011;42226;42.382;23.748;2022-12-10T09:36:05;7.53;;;5.00;;
56319;SDS011;42226;42.382;23.748;2022-12-10T09:38:35;8.38;;;4.90;;
56319;SDS011;42226;42.382;23.748;2022-12-10T09:44:14;6.38;;;5.10;;
56319;SDS011;42226;42.382;23.748;2022-12-10T09:47:35;9.30;;;6.00;;
56319;SDS011;42226;42.382;23.748;2022-12-10T09:50:43;10.20;;;5.60;;
56319;SDS011;42226;42.382;23.748;2022-12-10T09:53:42;9.30;;;5.72;;
56319;SDS011;42226;42.382;23.748;2022-12-10T09:56:30;8.40;;;5.78;;
56319;SDS011;42226;42.382;23.748;2022-12-10T09:59:06;7.55;;;4.85;;
56319;SDS011;42226;42.382;23.748;2022-12-10T10:05:05;9.02;;;5.20;;
56319;SDS011;42226;42.382;23.748;2022-12-10T10:07:33;6.88;;;4.80;;
56319;SDS011;42226;42.382;23.748;2022-12-10T10:16:00;7.45;;;4.80;;
56319;SDS011;42226;42.382;23.748;2022-12-10T10:19:00;5.90;;;5.03;;
56319;SDS011;42226;42.382;23.748;2022-12-10T10:21:38;7.75;;;5.47;;
56319;SDS011;42226;42.382;23.748;2022-12-10T10:24:09;10.57;;;4.82;;
56319;SDS011;42226;42.382;23.748;2022-12-10T10:26:51;8.18;;;5.00;;
56319;SDS011;42226;42.382;23.748;2022-12-10T10:29:23;6.35;;;4.88;;
56319;SDS011;42226;42.382;23.748;2022-12-10T10:32:10;10.63;;;5.15;;
56319;SDS011;42226;42.382;23.748;2022-12-10T10:34:45;10.30;;;5.47;;
56319;SDS011;42226;42.382;23.748;2022-12-10T10:37:20;7.68;;;4.60;;
56319;SDS011;42226;42.382;23.748;2022-12-10T10:39:53;8.50;;;4.55;;
56319;SDS011;42226;42.382;23.748;2022-12-10T10:42:41;8.32;;;4.70;;
56319;SDS011;42226;42.382;23.748;2022-12-10T10:48:13;6.95;;;4.63;;
56319;SDS011;42226;42.382;23.748;2022-12-10T10:50:47;8.35;;;4.95;;
56319;SDS011;42226;42.382;23.748;2022-12-10T10:53:31;7.57;;;5.05;;
56319;SDS011;42226;42.382;23.748;2022-12-10T10:56:14;8.07;;;4.65;;
56319;SDS011;42226;42.382;23.748;2022-12-10T10:58:56;10.98;;;4.80;;
56319;SDS011;42226;42.382;23.748;2022-12-10T11:01:49;8.70;;;5.30;;
56319;SDS011;42226;42.382;23.748;2022-12-10T11:04:28;6.95;;;4.90;;
56319;SDS011;42226;42.382;23.748;2022-12-10T11:07:01;7.40;;;4.70;;
56319;SDS011;42226;42.382;23.748;2022-12-10T11:09:33;7.28;;;4.63;;
56319;SDS011;42226;42.382;23.748;2022-12-10T11:12:05;8.30;;;4.68;;
56319;SDS011;42226;42.382;23.748;2022-12-10T11:14:46;6.03;;;4.57;;
56319;SDS011;42226;42.382;23.748;2022-12-10T11:17:18;6.72;;;4.82;;
56319;SDS011;42226;42.382;23.748;2022-12-10T11:20:16;8.05;;;4.65;;
56319;SDS011;42226;42.382;23.748;2022-12-10T11:25:44;7.07;;;4.50;;
56319;SDS011;42226;42.382;23.748;2022-12-10T11:28:40;9.02;;;4.55;;
56319;SDS011;42226;42.382;23.748;2022-12-10T11:31:44;7.75;;;4.70;;
56319;SDS011;42226;42.382;23.748;2022-12-10T11:40:27;7.50;;;4.85;;
56319;SDS011;42226;42.382;23.748;2022-12-10T11:49:03;9.30;;;4.50;;
56319;SDS011;42226;42.382;23.748;2022-12-10T11:57:55;9.25;;;4.63;;
56319;SDS011;42226;42.382;23.748;2022-12-10T12:00:47;7.63;;;4.68;;
56319;SDS011;42226;42.382;23.748;2022-12-10T12:14:43;6.78;;;4.50;;
56319;SDS011;42226;42.382;23.748;2022-12-10T12:17:34;10.00;;;4.80;;
56319;SDS011;42226;42.382;23.748;2022-12-10T12:20:24;6.22;;;4.60;;
56319;SDS011;42226;42.382;23.748;2022-12-10T12:26:02;7.13;;;4.78;;
56319;SDS011;42226;42.382;23.748;2022-12-10T12:28:41;8.15;;;5.18;;
56319;SDS011;42226;42.382;23.748;2022-12-10T12:31:15;8.10;;;4.68;;
56319;SDS011;42226;42.382;23.748;2022-12-10T12:34:01;9.05;;;4.95;;
56319;SDS011;42226;42.382;23.748;2022-12-10T12:36:44;8.88;;;5.25;;
56319;SDS011;42226;42.382;23.748;2022-12-10T12:39:21;10.90;;;5.50;;
56319;SDS011;42226;42.382;23.748;2022-12-10T12:50:48;8.38;;;5.50;;
56319;SDS011;42226;42.382;23.748;2022-12-10T12:53:24;8.10;;;5.97;;
56319;SDS011;42226;42.382;23.748;2022-12-10T13:01:58;7.53;;;5.28;;
56319;SDS011;42226;42.382;23.748;2022-12-10T13:05:03;8.90;;;5.10;;
56319;SDS011;42226;42.382;23.748;2022-12-10T13:07:37;6.97;;;4.47;;
56319;SDS011;42226;42.382;23.748;2022-12-10T13:20:41;8.13;;;5.47;;
56319;SDS011;42226;42.382;23.748;2022-12-10T13:31:18;8.50;;;5.68;;
56319;SDS011;42226;42.382;23.748;2022-12-10T13:39:20;8.68;;;6.03;;
56319;SDS011;42226;42.382;23.748;2022-12-10T13:45:03;10.30;;;5.57;;
56319;SDS011;42226;42.382;23.748;2022-12-10T13:47:53;9.77;;;6.18;;
56319;SDS011;42226;42.382;23.748;2022-12-10T13:54:01;10.30;;;6.10;;
56319;SDS011;42226;42.382;23.748;2022-12-10T13:56:51;7.65;;;6.20;;
56319;SDS011;42226;42.382;23.748;2022-12-10T14:02:24;12.55;;;6.45;;
56319;SDS011;42226;42.382;23.748;2022-12-10T14:08:20;9.68;;;6.07;;
56319;SDS011;42226;42.382;23.748;2022-12-10T14:10:56;9.48;;;6.80;;
56319;SDS011;42226;42.382;23.748;2022-12-10T14:13:30;9.20;;;6.35;;
56319;SDS011;42226;42.382;23.748;2022-12-10T14:16:12;9.07;;;7.00;;
56319;SDS011;42226;42.382;23.748;2022-12-10T14:18:42;8.60;;;6.60;;
56319;SDS011;42226;42.382;23.748;2022-12-10T14:21:13;9.50;;;6.25;;
56319;SDS011;42226;42.382;23.748;2022-12-10T14:23:47;8.95;;;6.45;;
56319;SDS011;42226;42.382;23.748;2022-12-10T14:26:16;10.23;;;6.72;;
56319;SDS011;42226;42.382;23.748;2022-12-10T14:28:47;9.77;;;6.90;;
56319;SDS011;42226;42.382;23.748;2022-12-10T14:31:35;11.02;;;7.85;;
56319;SDS011;42226;42.382;23.748;2022-12-10T14:34:10;11.02;;;8.10;;
56319;SDS011;42226;42.382;23.748;2022-12-10T14:36:47;10.23;;;7.35;;
56319;SDS011;42226;42.382;23.748;2022-12-10T14:39:28;12.57;;;8.23;;
56319;SDS011;42226;42.382;23.748;2022-12-10T14:41:58;12.70;;;8.60;;
56319;SDS011;42226;42.382;23.748;2022-12-10T14:44:30;10.40;;;7.57;;
56319;SDS011;42226;42.382;23.748;2022-12-10T14:47:06;9.05;;;7.45;;
56319;SDS011;42226;42.382;23.748;2022-12-10T14:49:49;9.90;;;7.40;;
56319;SDS011;42226;42.382;23.748;2022-12-10T14:52:23;8.43;;;6.93;;
56319;SDS011;42226;42.382;23.748;2022-12-10T14:54:58;10.95;;;7.85;;
56319;SDS011;42226;42.382;23.748;2022-12-10T14:57:26;10.82;;;7.53;;
56319;SDS011;42226;42.382;23.748;2022-12-10T15:02:37;9.52;;;7.25;;
56319;SDS011;42226;42.382;23.748;2022-12-10T15:05:15;10.50;;;6.80;;
56319;SDS011;42226;42.382;23.748;2022-12-10T15:07:47;11.25;;;7.90;;
56319;SDS011;42226;42.382;23.748;2022-12-10T15:10:32;10.70;;;7.75;;
56319;SDS011;42226;42.382;23.748;2022-12-10T15:13:03;11.35;;;6.75;;
56319;SDS011;42226;42.382;23.748;2022-12-10T15:15:36;11.57;;;6.85;;
56319;SDS011;42226;42.382;23.748;2022-12-10T15:20:38;10.15;;;6.90;;
56319;SDS011;42226;42.382;23.748;2022-12-10T15:28:46;12.98;;;8.13;;
56319;SDS011;42226;42.382;23.748;2022-12-10T15:36:35;12.70;;;7.35;;
56319;SDS011;42226;42.382;23.748;2022-12-10T15:39:27;11.43;;;6.55;;
56319;SDS011;42226;42.382;23.748;2022-12-10T15:42:27;13.00;;;8.13;;
56319;SDS011;42226;42.382;23.748;2022-12-10T15:47:45;12.77;;;7.65;;
56319;SDS011;42226;42.382;23.748;2022-12-10T15:50:12;23.45;;;14.90;;
56319;SDS011;42226;42.382;23.748;2022-12-10T15:52:41;11.48;;;7.78;;
56319;SDS011;42226;42.382;23.748;2022-12-10T15:55:11;10.82;;;7.93;;
56319;SDS011;42226;42.382;23.748;2022-12-10T15:57:40;12.00;;;7.05;;
56319;SDS011;42226;42.382;23.748;2022-12-10T16:00:16;8.63;;;7.03;;
56319;SDS011;42226;42.382;23.748;2022-12-10T16:08:11;12.75;;;7.75;;
56319;SDS011;42226;42.382;23.748;2022-12-10T16:10:45;8.50;;;7.38;;
56319;SDS011;42226;42.382;23.748;2022-12-10T16:13:24;11.48;;;6.18;;
56319;SDS011;42226;42.382;23.748;2022-12-10T16:16:10;9.95;;;7.07;;
56319;SDS011;42226;42.382;23.748;2022-12-10T16:18:38;14.48;;;10.75;;
56319;SDS011;42226;42.382;23.748;2022-12-10T16:21:06;14.05;;;8.77;;
56319;SDS011;42226;42.382;23.748;2022-12-10T16:23:33;10.38;;;7.97;;
56319;SDS011;42226;42.382;23.748;2022-12-10T16:26:01;12.43;;;7.97;;
56319;SDS011;42226;42.382;23.748;2022-12-10T16:28:33;11.18;;;7.70;;
56319;SDS011;42226;42.382;23.748;2022-12-10T16:30:59;12.88;;;7.90;;
56319;SDS011;42226;42.382;23.748;2022-12-10T16:33:27;11.40;;;6.95;;
56319;SDS011;42226;42.382;23.748;2022-12-10T16:35:54;13.57;;;7.82;;
56319;SDS011;42226;42.382;23.748;2022-12-10T16:38:27;9.82;;;6.43;;
56319;SDS011;42226;42.382;23.748;2022-12-10T16:40:54;21.27;;;16.00;;
56319;SDS011;42226;42.382;23.748;2022-12-10T16:43:23;14.85;;;11.93;;
56319;SDS011;42226;42.382;23.748;2022-12-10T16:45:52;11.23;;;8.13;;
56319;SDS011;42226;42.382;23.748;2022-12-10T16:48:20;9.95;;;6.72;;
56319;SDS011;42226;42.382;23.748;2022-12-10T16:50:48;12.50;;;7.88;;
56319;SDS011;42226;42.382;23.748;2022-12-10T16:53:24;10.32;;;6.93;;
56319;SDS011;42226;42.382;23.748;2022-12-10T16:55:54;15.00;;;8.93;;
56319;SDS011;42226;42.382;23.748;2022-12-10T16:58:22;10.30;;;7.63;;
56319;SDS011;42226;42.382;23.748;2022-12-10T17:00:51;12.48;;;7.40;;
56319;SDS011;42226;42.382;23.748;2022-12-10T17:03:21;13.73;;;8.35;;
56319;SDS011;42226;42.382;23.748;2022-12-10T17:05:51;14.23;;;8.68;;
56319;SDS011;42226;42.382;23.748;2022-12-10T17:08:21;21.45;;;15.95;;
56319;SDS011;42226;42.382;23.748;2022-12-10T17:10:49;19.17;;;14.27;;
56319;SDS011;42226;42.382;23.748;2022-12-10T17:13:35;18.17;;;9.32;;
56319;SDS011;42226;42.382;23.748;2022-12-10T17:16:04;14.55;;;8.60;;
56319;SDS011;42226;42.382;23.748;2022-12-10T17:18:32;15.65;;;9.80;;
56319;SDS011;42226;42.382;23.748;2022-12-10T17:21:01;13.65;;;9.45;;